createdAt,value
2023-04-16T00:04:20.755Z,6.89
2023-04-16T00:06:49.332Z,6.89
2023-04-16T00:09:17.401Z,6.18
2023-04-16T00:11:45.373Z,6.35
2023-04-16T00:14:13.438Z,6.43
2023-04-16T00:16:41.330Z,6.34
2023-04-16T00:19:09.917Z,6.48
2023-04-16T00:21:38.503Z,6.38
2023-04-16T00:42:02.286Z,6.99
2023-04-16T00:44:55.805Z,6.99
2023-04-16T00:47:44.886Z,6.32
2023-04-16T00:50:55.654Z,6.58
2023-04-16T00:54:04.996Z,6.26
2023-04-16T00:56:59.266Z,6.66
2023-04-16T01:00:12.574Z,6.05
2023-04-16T01:03:02.742Z,6.50
2023-04-16T01:06:11.105Z,6.70
2023-04-16T01:09:21.697Z,6.33
2023-04-16T01:12:31.469Z,6.66
2023-04-16T01:15:40.103Z,6.83
2023-04-16T01:18:31.488Z,6.79
2023-04-16T01:21:22.002Z,6.76
2023-04-16T01:23:51.404Z,6.58
2023-04-16T01:26:46.547Z,6.51
2023-04-16T01:47:43.823Z,6.49
2023-04-16T03:24:47.306Z,7.16
2023-04-16T03:27:15.880Z,7.16
2023-04-16T03:29:43.911Z,6.55
2023-04-16T03:32:12.829Z,6.51
2023-04-16T03:34:41.327Z,6.47
2023-04-16T03:37:12.152Z,6.40
2023-04-16T03:39:40.654Z,6.34
2023-04-16T04:00:14.323Z,6.76
2023-04-16T04:02:42.536Z,6.76
2023-04-16T04:05:13.679Z,6.20
2023-04-16T04:07:42.077Z,6.25
2023-04-16T04:10:10.291Z,6.28
2023-04-16T04:12:39.395Z,6.32
2023-04-16T04:15:08.514Z,6.38
2023-04-16T04:17:36.521Z,6.41
2023-04-16T04:38:03.071Z,7.23
2023-04-16T04:40:32.200Z,7.23
2023-04-16T04:43:00.067Z,6.41
2023-04-16T04:45:29.706Z,6.47
2023-04-16T04:48:00.803Z,6.53
2023-04-16T04:50:28.706Z,6.47
2023-04-16T04:52:56.610Z,6.45
2023-04-16T05:13:11.471Z,7.64
2023-04-16T05:15:40.631Z,7.64
2023-04-16T05:18:08.746Z,7.09
2023-04-16T05:20:37.947Z,7.17
2023-04-16T05:23:06.234Z,7.06
2023-04-16T05:25:34.074Z,7.23
2023-04-16T05:28:02.107Z,7.31
2023-04-16T05:30:30.547Z,7.26
2023-04-16T05:48:13.994Z,8.74
2023-04-16T05:50:42.588Z,8.74
2023-04-16T05:53:11.094Z,8.20
2023-04-16T05:55:38.935Z,8.19
2023-04-16T05:58:07.153Z,8.35
2023-04-16T06:00:35.246Z,8.35
2023-04-16T06:03:04.020Z,8.65
2023-04-16T06:05:40.584Z,8.41
2023-04-16T06:28:31.204Z,9.14
2023-04-16T06:31:00.638Z,9.14
2023-04-16T06:33:28.670Z,8.46
2023-04-16T06:35:56.833Z,8.33
2023-04-16T06:38:24.988Z,8.51
2023-04-16T06:40:52.910Z,8.62
2023-04-16T06:43:20.930Z,8.68
2023-04-16T06:45:49.157Z,8.58
2023-04-16T06:48:17.376Z,8.84
2023-04-16T07:08:15.339Z,9.42
2023-04-16T07:11:46.705Z,9.42
2023-04-16T07:14:58.300Z,9.18
2023-04-16T07:18:14.841Z,9.17
2023-04-16T07:20:42.975Z,9.57
2023-04-16T07:23:11.163Z,9.48
2023-04-16T07:25:39.336Z,9.53
2023-04-16T07:28:07.353Z,9.62
2023-04-16T07:30:35.930Z,9.88
2023-04-16T07:33:04.543Z,9.84
2023-04-16T07:35:32.942Z,9.89
2023-04-16T07:38:06.680Z,9.66
2023-04-16T07:58:32.080Z,9.29
2023-04-16T08:01:01.517Z,9.13
2023-04-16T08:03:29.878Z,9.34
2023-04-16T08:05:58.659Z,9.30
2023-04-16T08:08:27.982Z,9.24
2023-04-16T08:10:56.431Z,9.25
2023-04-16T08:13:24.479Z,9.26
2023-04-16T08:18:42.978Z,10.32
2023-04-16T08:21:11.591Z,10.32
2023-04-16T08:23:39.432Z,9.89
2023-04-16T08:26:07.228Z,10.11
2023-04-16T08:28:35.513Z,10.39
2023-04-16T08:31:03.528Z,10.49
2023-04-16T08:33:31.553Z,10.51
2023-04-16T08:35:59.914Z,10.81
2023-04-16T08:56:48.879Z,14.95
2023-04-16T08:59:18.209Z,14.95
2023-04-16T09:01:49.247Z,13.76
2023-04-16T09:04:19.418Z,13.29
2023-04-16T09:06:49.826Z,12.56
2023-04-16T09:09:20.376Z,12.79
2023-04-16T09:11:52.071Z,12.51
2023-04-16T09:32:29.115Z,13.78
2023-04-16T09:35:01.990Z,13.78
2023-04-16T09:37:31.436Z,13.11
2023-04-16T09:40:01.537Z,13.15
2023-04-16T09:42:33.208Z,13.09
2023-04-16T09:45:04.113Z,13.23
2023-04-16T09:47:45.258Z,13.37
2023-04-16T10:08:13.298Z,15.25
2023-04-16T10:10:42.402Z,15.25
2023-04-16T10:13:10.905Z,14.89
2023-04-16T10:15:39.318Z,14.64
2023-04-16T10:18:07.760Z,14.71
2023-04-16T10:20:36.893Z,14.34
2023-04-16T10:23:05.594Z,14.67
2023-04-16T10:25:34.286Z,14.56
2023-04-16T10:46:50.692Z,15.59
2023-04-16T10:49:20.125Z,15.60
2023-04-16T10:52:07.609Z,15.03
2023-04-16T10:54:36.691Z,14.73
2023-04-16T10:57:06.909Z,15.03
2023-04-16T10:59:38.106Z,14.96
2023-04-16T11:02:14.192Z,15.17
2023-04-16T11:25:31.140Z,16.38
2023-04-16T11:28:00.105Z,16.38
2023-04-16T11:30:34.232Z,15.46
2023-04-16T11:33:08.003Z,15.30
2023-04-16T11:35:36.137Z,15.05
2023-04-16T11:38:06.205Z,15.31
2023-04-16T11:40:34.479Z,14.90
2023-04-16T11:43:12.925Z,15.27
2023-04-16T12:04:17.618Z,16.23
2023-04-16T12:07:06.822Z,16.23
2023-04-16T12:09:38.748Z,15.82
2023-04-16T12:12:28.694Z,15.70
2023-04-16T12:14:59.690Z,15.68
2023-04-16T12:17:27.910Z,15.65
2023-04-16T12:20:01.263Z,16.03
2023-04-16T12:40:30.601Z,17.04
2023-04-16T12:42:59.121Z,17.04
2023-04-16T12:45:27.169Z,16.11
2023-04-16T12:47:56.038Z,16.08
2023-04-16T12:50:24.582Z,16.28
2023-04-16T12:52:52.455Z,16.22
2023-04-16T12:55:20.376Z,16.33
2023-04-16T13:00:40.655Z,16.64
2023-04-16T13:03:09.823Z,16.64
2023-04-16T13:05:37.837Z,16.31
2023-04-16T13:08:05.889Z,15.93
2023-04-16T13:10:35.650Z,16.07
2023-04-16T13:13:03.461Z,15.80
2023-04-16T13:15:31.565Z,15.88
2023-04-16T13:18:00.254Z,15.88
2023-04-16T13:38:21.970Z,15.76
2023-04-16T13:40:51.286Z,15.76
2023-04-16T13:43:19.772Z,15.21
2023-04-16T13:45:47.996Z,15.26
2023-04-16T13:48:18.011Z,15.32
2023-04-16T13:50:46.328Z,15.51
2023-04-16T13:53:14.424Z,15.38
2023-04-16T13:55:43.409Z,15.50
2023-04-16T14:15:39.902Z,16.27
2023-04-16T14:18:08.683Z,16.27
2023-04-16T14:20:37.107Z,15.45
2023-04-16T14:23:05.200Z,15.69
2023-04-16T14:25:34.169Z,15.67
2023-04-16T14:28:03.886Z,15.04
2023-04-16T14:30:32.596Z,15.65
2023-04-16T14:33:01.401Z,15.50
2023-04-16T14:38:09.131Z,15.19
2023-04-16T14:40:37.060Z,15.59
2023-04-16T14:43:05.484Z,15.60
2023-04-16T14:45:33.797Z,15.48
2023-04-16T14:48:02.285Z,15.55
2023-04-16T14:50:30.381Z,15.63
2023-04-16T14:52:58.842Z,15.30
2023-04-16T15:15:38.698Z,15.70
2023-04-16T15:18:07.512Z,15.70
2023-04-16T15:20:36.015Z,15.01
2023-04-16T15:23:03.974Z,14.92
2023-04-16T15:25:33.004Z,14.87
2023-04-16T15:28:02.801Z,14.81
2023-04-16T15:30:31.427Z,14.62
2023-04-16T15:56:21.633Z,15.22
2023-04-16T15:58:49.679Z,14.49
2023-04-16T16:01:18.083Z,14.34
2023-04-16T16:03:46.574Z,14.39
2023-04-16T16:08:46.254Z,14.34
2023-04-16T16:11:23.069Z,14.32
2023-04-16T16:13:51.989Z,14.32
2023-04-16T16:34:02.908Z,14.88
2023-04-16T16:36:34.296Z,14.88
2023-04-16T16:39:04.116Z,14.20
2023-04-16T16:41:35.437Z,14.15
2023-04-16T16:44:03.580Z,14.00
2023-04-16T16:46:31.792Z,13.85
2023-04-16T16:49:01.425Z,13.96
2023-04-16T16:51:30.727Z,13.90
2023-04-16T17:09:12.725Z,13.58
2023-04-16T17:11:42.187Z,13.48
2023-04-16T17:14:10.265Z,13.35
2023-04-16T17:16:38.415Z,13.37
2023-04-16T17:19:07.036Z,13.30
2023-04-16T17:21:35.183Z,13.23
2023-04-16T17:24:03.334Z,13.14
2023-04-16T17:26:32.027Z,12.92
2023-04-16T17:49:26.626Z,12.93
2023-04-16T17:51:55.710Z,12.93
2023-04-16T17:54:25.404Z,12.24
2023-04-16T17:56:53.580Z,12.20
2023-04-16T17:59:22.067Z,12.16
2023-04-16T18:01:50.363Z,12.11
2023-04-16T18:04:19.345Z,12.21
2023-04-16T18:06:48.012Z,12.17
2023-04-16T18:27:21.717Z,12.60
2023-04-16T18:29:51.382Z,12.60
2023-04-16T18:32:19.792Z,11.99
2023-04-16T18:34:48.210Z,11.77
2023-04-16T18:37:17.527Z,11.92
2023-04-16T18:39:45.385Z,11.92
2023-04-16T18:42:13.183Z,11.79
2023-04-16T18:44:41.810Z,11.91
2023-04-16T19:05:14.668Z,12.40
2023-04-16T19:07:43.603Z,12.40
2023-04-16T19:10:12.172Z,11.78
2023-04-16T19:12:40.569Z,11.76
2023-04-16T19:15:09.412Z,11.65
2023-04-16T19:17:37.690Z,11.73
2023-04-16T19:20:11.391Z,11.72
2023-04-16T19:22:39.935Z,11.61
2023-04-16T19:25:08.447Z,11.66
2023-04-16T19:43:12.833Z,12.11
2023-04-16T19:45:55.014Z,12.11
2023-04-16T19:48:23.313Z,11.42
2023-04-16T19:50:51.461Z,11.38
2023-04-16T19:53:19.626Z,11.37
2023-04-16T19:55:47.736Z,11.32
2023-04-16T19:58:16.338Z,11.36
2023-04-16T20:20:53.248Z,11.91
2023-04-16T20:23:22.119Z,11.91
2023-04-16T20:25:50.068Z,11.14
2023-04-16T20:28:21.593Z,11.11
2023-04-16T20:30:51.134Z,10.96
2023-04-16T20:33:19.862Z,11.19
2023-04-16T20:35:48.063Z,11.16
2023-04-16T20:38:16.339Z,11.02
2023-04-16T20:56:07.137Z,11.56
2023-04-16T20:58:36.084Z,11.56
2023-04-16T21:01:06.037Z,10.92
2023-04-16T21:03:34.124Z,10.85
2023-04-16T21:06:03.704Z,10.88
2023-04-16T21:08:31.607Z,10.86
2023-04-16T21:10:59.686Z,10.86
2023-04-16T21:13:28.034Z,10.84
2023-04-16T21:33:36.809Z,11.28
2023-04-16T21:36:05.693Z,11.28
2023-04-16T21:38:33.613Z,10.68
2023-04-16T21:41:02.014Z,10.68
2023-04-16T21:43:32.874Z,10.71
2023-04-16T21:46:00.707Z,10.46
2023-04-16T21:48:29.161Z,10.66
2023-04-16T21:50:59.301Z,10.65
2023-04-16T22:11:18.924Z,10.36
2023-04-16T22:13:47.852Z,10.12
2023-04-16T22:16:15.865Z,10.16
2023-04-16T22:18:43.974Z,10.27
2023-04-16T22:21:12.154Z,10.24
2023-04-16T22:23:39.933Z,10.22
2023-04-16T22:26:09.113Z,10.23
2023-04-16T22:28:38.094Z,10.18
2023-04-16T22:31:06.076Z,10.28
2023-04-16T22:48:48.842Z,10.81
2023-04-16T22:51:17.603Z,10.81
2023-04-16T22:53:45.676Z,10.06
2023-04-16T22:56:13.647Z,10.17
2023-04-16T22:58:41.950Z,10.11
2023-04-16T23:01:10.058Z,10.15
2023-04-16T23:03:38.156Z,10.09
2023-04-16T23:06:07.152Z,10.13
2023-04-16T23:29:03.594Z,10.57
2023-04-16T23:31:32.422Z,10.57
2023-04-16T23:34:00.906Z,9.72
2023-04-16T23:36:28.692Z,9.90
2023-04-16T23:38:56.982Z,9.89
2023-04-16T23:41:24.953Z,9.88
2023-04-16T23:43:56.566Z,9.87
